Terminal Aerodrome Forecast
Issued by NWS

Home | Current Version | Previous Version | Text Only | Print | Product List | Glossary On
Versions: 1 2 3 4 5 6 7 8 9 10 11 12 13
008
FTAK31 PAJN 230520
TAFAPG
TAF
PAPG 230520Z 2306/2406 VRB06KT P6SM BKN045 OVC080
     FM231200 12006KT 6SM -SN SCT010 BKN035 OVC050
     FM231600 12010KT 3SM -SN BKN010 OVC035
     FM232000 12010KT 5SM -RASN SCT010 BKN025 OVC040
      AMD LTD TO CLD VIS AND WIND 2306/2315=

USA.gov is the U.S. government's official web portal to all federal, state and local government web resources and services.